sensor_id;sensor_type;location;lat;lon;timestamp;pressure;altitude;pressure_sealevel;temperature;humidity
38303;BME280;24103;42.454;27.400;2023-07-13T00:00:13;100763.22;;;23.80;100.00
38303;BME280;24103;42.454;27.400;2023-07-13T00:02:42;100750.91;;;23.77;100.00
38303;BME280;24103;42.454;27.400;2023-07-13T00:05:07;100749.91;;;23.70;100.00
38303;BME280;24103;42.454;27.400;2023-07-13T00:07:34;100751.25;;;23.66;100.00
38303;BME280;24103;42.454;27.400;2023-07-13T00:09:59;100751.75;;;23.69;100.00
38303;BME280;24103;42.454;27.400;2023-07-13T00:14:56;100736.06;;;23.73;100.00
38303;BME280;24103;42.454;27.400;2023-07-13T00:17:22;100730.53;;;23.66;100.00
38303;BME280;24103;42.454;27.400;2023-07-13T00:19:48;100725.31;;;23.57;100.00
38303;BME280;24103;42.454;27.400;2023-07-13T00:22:13;100735.75;;;23.43;100.00
38303;BME280;24103;42.454;27.400;2023-07-13T00:24:39;100732.72;;;23.46;100.00
38303;BME280;24103;42.454;27.400;2023-07-13T00:27:08;100740.97;;;23.53;100.00
38303;BME280;24103;42.454;27.400;2023-07-13T00:29:35;100740.28;;;23.59;100.00
38303;BME280;24103;42.454;27.400;2023-07-13T00:32:04;100738.28;;;23.69;100.00
38303;BME280;24103;42.454;27.400;2023-07-13T00:34:30;100731.19;;;23.60;100.00
38303;BME280;24103;42.454;27.400;2023-07-13T00:36:56;100731.34;;;23.67;100.00
38303;BME280;24103;42.454;27.400;2023-07-13T00:39:22;100731.69;;;23.64;100.00
38303;BME280;24103;42.454;27.400;2023-07-13T00:41:48;100730.53;;;23.58;100.00
38303;BME280;24103;42.454;27.400;2023-07-13T00:44:15;100726.97;;;23.58;100.00
38303;BME280;24103;42.454;27.400;2023-07-13T00:46:40;100725.47;;;23.63;100.00
38303;BME280;24103;42.454;27.400;2023-07-13T00:49:08;100729.50;;;23.67;100.00
38303;BME280;24103;42.454;27.400;2023-07-13T00:51:58;100726.78;;;23.59;100.00
38303;BME280;24103;42.454;27.400;2023-07-13T00:54:29;100724.97;;;23.51;100.00
38303;BME280;24103;42.454;27.400;2023-07-13T00:56:58;100720.91;;;23.39;100.00
38303;BME280;24103;42.454;27.400;2023-07-13T00:59:25;100717.03;;;23.25;100.00
38303;BME280;24103;42.454;27.400;2023-07-13T01:01:51;100709.63;;;23.19;100.00
38303;BME280;24103;42.454;27.400;2023-07-13T01:04:17;100719.06;;;23.15;100.00
38303;BME280;24103;42.454;27.400;2023-07-13T01:06:43;100717.72;;;23.19;100.00
38303;BME280;24103;42.454;27.400;2023-07-13T01:09:11;100699.66;;;23.11;100.00
38303;BME280;24103;42.454;27.400;2023-07-13T01:11:37;100704.22;;;23.11;100.00
38303;BME280;24103;42.454;27.400;2023-07-13T01:14:03;100704.06;;;23.12;100.00
38303;BME280;24103;42.454;27.400;2023-07-13T01:16:31;100705.41;;;23.16;100.00
38303;BME280;24103;42.454;27.400;2023-07-13T01:18:58;100696.13;;;23.19;100.00
38303;BME280;24103;42.454;27.400;2023-07-13T01:21:26;100692.78;;;23.25;100.00
38303;BME280;24103;42.454;27.400;2023-07-13T01:23:52;100696.97;;;23.19;100.00
38303;BME280;24103;42.454;27.400;2023-07-13T01:26:18;100690.41;;;23.22;100.00
38303;BME280;24103;42.454;27.400;2023-07-13T01:28:43;100700.03;;;23.16;100.00
38303;BME280;24103;42.454;27.400;2023-07-13T01:31:09;100694.81;;;23.15;100.00
38303;BME280;24103;42.454;27.400;2023-07-13T01:33:38;100694.97;;;23.13;100.00
38303;BME280;24103;42.454;27.400;2023-07-13T01:36:08;100692.94;;;23.07;100.00
38303;BME280;24103;42.454;27.400;2023-07-13T01:38:35;100691.88;;;22.92;100.00
38303;BME280;24103;42.454;27.400;2023-07-13T01:41:01;100689.69;;;22.87;100.00
38303;BME280;24103;42.454;27.400;2023-07-13T01:43:27;100698.44;;;22.89;100.00
38303;BME280;24103;42.454;27.400;2023-07-13T01:45:52;100688.50;;;22.98;100.00
38303;BME280;24103;42.454;27.400;2023-07-13T01:48:18;100686.72;;;23.07;100.00
38303;BME280;24103;42.454;27.400;2023-07-13T01:50:43;100688.31;;;22.91;100.00
38303;BME280;24103;42.454;27.400;2023-07-13T01:53:09;100689.00;;;22.85;100.00
38303;BME280;24103;42.454;27.400;2023-07-13T01:55:35;100690.19;;;22.82;100.00
38303;BME280;24103;42.454;27.400;2023-07-13T01:58:00;100685.44;;;22.85;100.00
38303;BME280;24103;42.454;27.400;2023-07-13T02:00:26;100684.94;;;22.81;100.00
38303;BME280;24103;42.454;27.400;2023-07-13T02:02:51;100690.00;;;22.84;100.00
38303;BME280;24103;42.454;27.400;2023-07-13T02:05:17;100685.97;;;22.96;100.00
38303;BME280;24103;42.454;27.400;2023-07-13T02:07:42;100687.34;;;22.92;100.00
38303;BME280;24103;42.454;27.400;2023-07-13T02:10:09;100684.13;;;22.89;100.00
38303;BME280;24103;42.454;27.400;2023-07-13T02:12:35;100687.66;;;22.97;100.00
38303;BME280;24103;42.454;27.400;2023-07-13T02:15:02;100683.44;;;22.95;100.00
38303;BME280;24103;42.454;27.400;2023-07-13T02:17:27;100686.34;;;22.93;100.00
38303;BME280;24103;42.454;27.400;2023-07-13T02:19:53;100681.94;;;22.84;100.00
38303;BME280;24103;42.454;27.400;2023-07-13T02:22:19;100688.47;;;22.81;100.00
38303;BME280;24103;42.454;27.400;2023-07-13T02:24:45;100689.16;;;22.75;100.00
38303;BME280;24103;42.454;27.400;2023-07-13T02:27:10;100682.59;;;22.78;100.00
38303;BME280;24103;42.454;27.400;2023-07-13T02:29:35;100685.09;;;22.71;100.00
38303;BME280;24103;42.454;27.400;2023-07-13T02:32:01;100683.75;;;22.67;100.00
38303;BME280;24103;42.454;27.400;2023-07-13T02:34:26;100684.09;;;22.72;100.00
38303;BME280;24103;42.454;27.400;2023-07-13T02:36:52;100686.66;;;22.82;100.00
38303;BME280;24103;42.454;27.400;2023-07-13T02:39:18;100689.50;;;22.80;100.00
38303;BME280;24103;42.454;27.400;2023-07-13T02:41:43;100691.84;;;22.67;100.00
38303;BME280;24103;42.454;27.400;2023-07-13T02:44:09;100689.94;;;22.59;100.00
38303;BME280;24103;42.454;27.400;2023-07-13T02:46:36;100688.78;;;22.54;100.00
38303;BME280;24103;42.454;27.400;2023-07-13T02:49:03;100692.19;;;22.72;100.00
38303;BME280;24103;42.454;27.400;2023-07-13T02:51:29;100692.03;;;22.74;100.00
38303;BME280;24103;42.454;27.400;2023-07-13T02:53:55;100690.47;;;22.71;100.00
38303;BME280;24103;42.454;27.400;2023-07-13T02:56:27;100683.09;;;22.81;100.00
38303;BME280;24103;42.454;27.400;2023-07-13T02:58:53;100692.19;;;22.72;100.00
38303;BME280;24103;42.454;27.400;2023-07-13T03:01:20;100694.16;;;22.70;100.00
38303;BME280;24103;42.454;27.400;2023-07-13T03:03:46;100694.38;;;22.69;100.00
38303;BME280;24103;42.454;27.400;2023-07-13T03:06:12;100683.59;;;22.69;100.00
38303;BME280;24103;42.454;27.400;2023-07-13T03:08:38;100687.13;;;22.69;100.00
38303;BME280;24103;42.454;27.400;2023-07-13T03:11:07;100683.41;;;22.78;100.00
38303;BME280;24103;42.454;27.400;2023-07-13T03:13:33;100685.00;;;23.06;100.00
38303;BME280;24103;42.454;27.400;2023-07-13T03:16:00;100679.63;;;23.30;100.00
38303;BME280;24103;42.454;27.400;2023-07-13T03:18:27;100690.72;;;23.68;100.00
38303;BME280;24103;42.454;27.400;2023-07-13T03:20:53;100697.50;;;24.20;100.00
38303;BME280;24103;42.454;27.400;2023-07-13T03:23:19;100701.75;;;24.62;100.00
38303;BME280;24103;42.454;27.400;2023-07-13T03:25:44;100693.94;;;24.99;100.00
38303;BME280;24103;42.454;27.400;2023-07-13T03:28:11;100690.53;;;25.28;100.00
38303;BME280;24103;42.454;27.400;2023-07-13T03:30:37;100692.19;;;25.52;100.00
38303;BME280;24103;42.454;27.400;2023-07-13T03:33:02;100689.91;;;25.94;100.00
38303;BME280;24103;42.454;27.400;2023-07-13T03:35:28;100685.56;;;26.44;100.00
38303;BME280;24103;42.454;27.400;2023-07-13T03:37:53;100671.09;;;26.89;100.00
38303;BME280;24103;42.454;27.400;2023-07-13T03:40:19;100676.03;;;27.50;100.00
38303;BME280;24103;42.454;27.400;2023-07-13T03:42:45;100669.47;;;27.94;100.00
38303;BME280;24103;42.454;27.400;2023-07-13T03:45:10;100670.69;;;28.26;100.00
38303;BME280;24103;42.454;27.400;2023-07-13T03:47:36;100671.69;;;28.80;100.00
38303;BME280;24103;42.454;27.400;2023-07-13T03:50:01;100666.28;;;29.07;100.00
38303;BME280;24103;42.454;27.400;2023-07-13T03:52:27;100663.63;;;29.54;95.77
38303;BME280;24103;42.454;27.400;2023-07-13T03:54:53;100651.38;;;30.03;91.55
38303;BME280;24103;42.454;27.400;2023-07-13T03:57:19;100641.53;;;30.54;86.00
38303;BME280;24103;42.454;27.400;2023-07-13T03:59:44;100645.34;;;30.78;81.98
38303;BME280;24103;42.454;27.400;2023-07-13T04:02:10;100643.25;;;31.12;79.85
38303;BME280;24103;42.454;27.400;2023-07-13T04:04:35;100646.66;;;31.58;75.18
38303;BME280;24103;42.454;27.400;2023-07-13T04:07:01;100627.78;;;32.12;70.93
38303;BME280;24103;42.454;27.400;2023-07-13T04:09:26;100629.09;;;32.70;66.07
38303;BME280;24103;42.454;27.400;2023-07-13T04:11:52;100625.66;;;33.17;62.34
38303;BME280;24103;42.454;27.400;2023-07-13T04:14:17;100624.72;;;33.35;61.12
38303;BME280;24103;42.454;27.400;2023-07-13T04:16:43;100612.72;;;34.00;57.39
38303;BME280;24103;42.454;27.400;2023-07-13T04:19:09;100617.66;;;34.27;55.11
38303;BME280;24103;42.454;27.400;2023-07-13T04:21:35;100608.22;;;34.97;52.30
38303;BME280;24103;42.454;27.400;2023-07-13T04:24:01;100610.06;;;35.42;50.21
38303;BME280;24103;42.454;27.400;2023-07-13T04:26:28;100608.66;;;35.79;48.46
38303;BME280;24103;42.454;27.400;2023-07-13T04:28:54;100607.94;;;35.89;48.20
38303;BME280;24103;42.454;27.400;2023-07-13T04:31:20;100603.53;;;35.88;47.53
38303;BME280;24103;42.454;27.400;2023-07-13T04:33:46;100614.03;;;36.40;46.62
38303;BME280;24103;42.454;27.400;2023-07-13T04:36:12;100621.75;;;36.98;45.02
38303;BME280;24103;42.454;27.400;2023-07-13T04:38:37;100616.91;;;37.15;44.84
38303;BME280;24103;42.454;27.400;2023-07-13T04:41:05;100620.91;;;37.30;44.47
38303;BME280;24103;42.454;27.400;2023-07-13T04:43:31;100622.13;;;37.49;43.38
38303;BME280;24103;42.454;27.400;2023-07-13T04:45:57;100623.38;;;37.31;43.15
38303;BME280;24103;42.454;27.400;2023-07-13T04:48:24;100631.34;;;36.95;44.32
38303;BME280;24103;42.454;27.400;2023-07-13T04:50:57;100636.78;;;36.30;46.66
38303;BME280;24103;42.454;27.400;2023-07-13T04:53:23;100647.91;;;36.19;47.47
38303;BME280;24103;42.454;27.400;2023-07-13T04:55:49;100639.97;;;36.49;46.45
38303;BME280;24103;42.454;27.400;2023-07-13T04:58:14;100642.06;;;36.64;45.94
38303;BME280;24103;42.454;27.400;2023-07-13T05:00:40;100652.41;;;36.79;45.21
38303;BME280;24103;42.454;27.400;2023-07-13T05:03:06;100652.47;;;36.84;45.69
38303;BME280;24103;42.454;27.400;2023-07-13T05:05:31;100647.56;;;36.92;45.05
38303;BME280;24103;42.454;27.400;2023-07-13T05:07:57;100641.72;;;36.83;45.23
38303;BME280;24103;42.454;27.400;2023-07-13T05:10:22;100643.19;;;36.96;44.75
38303;BME280;24103;42.454;27.400;2023-07-13T05:12:49;100631.41;;;37.38;44.73
38303;BME280;24103;42.454;27.400;2023-07-13T05:15:15;100635.66;;;38.09;43.25
38303;BME280;24103;42.454;27.400;2023-07-13T05:17:40;100623.69;;;38.71;40.84
38303;BME280;24103;42.454;27.400;2023-07-13T05:20:07;100633.34;;;38.95;41.04
38303;BME280;24103;42.454;27.400;2023-07-13T05:22:33;100624.22;;;39.15;40.00
38303;BME280;24103;42.454;27.400;2023-07-13T05:25:04;100635.03;;;39.11;39.66
38303;BME280;24103;42.454;27.400;2023-07-13T05:27:30;100623.34;;;39.40;39.12
38303;BME280;24103;42.454;27.400;2023-07-13T05:29:55;100622.78;;;39.53;38.72
38303;BME280;24103;42.454;27.400;2023-07-13T05:32:21;100618.22;;;39.98;38.09
38303;BME280;24103;42.454;27.400;2023-07-13T05:34:46;100617.63;;;40.07;37.71
38303;BME280;24103;42.454;27.400;2023-07-13T05:37:12;100615.28;;;40.24;37.27
38303;BME280;24103;42.454;27.400;2023-07-13T05:39:37;100619.31;;;39.92;37.64
38303;BME280;24103;42.454;27.400;2023-07-13T05:42:03;100618.81;;;39.85;37.75
38303;BME280;24103;42.454;27.400;2023-07-13T05:44:29;100623.91;;;40.17;37.37
38303;BME280;24103;42.454;27.400;2023-07-13T05:46:55;100626.09;;;40.65;37.22
38303;BME280;24103;42.454;27.400;2023-07-13T05:49:22;100621.78;;;40.88;36.83
38303;BME280;24103;42.454;27.400;2023-07-13T05:51:47;100610.63;;;40.64;35.83
38303;BME280;24103;42.454;27.400;2023-07-13T05:54:13;100630.78;;;40.25;37.76
38303;BME280;24103;42.454;27.400;2023-07-13T05:56:38;100622.00;;;40.63;36.47
38303;BME280;24103;42.454;27.400;2023-07-13T05:59:05;100620.09;;;41.22;34.96
38303;BME280;24103;42.454;27.400;2023-07-13T06:01:31;100632.06;;;41.17;35.30
38303;BME280;24103;42.454;27.400;2023-07-13T06:03:57;100623.66;;;41.28;34.02
38303;BME280;24103;42.454;27.400;2023-07-13T06:06:22;100625.94;;;42.17;33.32
38303;BME280;24103;42.454;27.400;2023-07-13T06:08:48;100624.69;;;42.28;32.42
38303;BME280;24103;42.454;27.400;2023-07-13T06:11:17;100622.97;;;41.65;33.85
38303;BME280;24103;42.454;27.400;2023-07-13T06:13:43;100624.22;;;41.54;34.09
38303;BME280;24103;42.454;27.400;2023-07-13T06:16:09;100614.31;;;41.72;33.61
38303;BME280;24103;42.454;27.400;2023-07-13T06:18:36;100614.84;;;41.74;33.55
38303;BME280;24103;42.454;27.400;2023-07-13T06:21:18;100612.34;;;41.96;33.28
38303;BME280;24103;42.454;27.400;2023-07-13T06:23:45;100618.56;;;42.45;33.43
38303;BME280;24103;42.454;27.400;2023-07-13T06:26:13;100616.94;;;42.63;33.17
38303;BME280;24103;42.454;27.400;2023-07-13T06:28:39;100610.97;;;42.70;33.32
38303;BME280;24103;42.454;27.400;2023-07-13T06:31:09;100601.69;;;43.26;32.41
38303;BME280;24103;42.454;27.400;2023-07-13T06:33:35;100603.97;;;43.52;32.91
38303;BME280;24103;42.454;27.400;2023-07-13T06:36:03;100587.25;;;43.80;31.24
38303;BME280;24103;42.454;27.400;2023-07-13T06:38:29;100577.00;;;44.03;29.73
38303;BME280;24103;42.454;27.400;2023-07-13T06:40:54;100578.28;;;43.69;30.64
38303;BME280;24103;42.454;27.400;2023-07-13T06:43:20;100580.88;;;43.79;30.55
38303;BME280;24103;42.454;27.400;2023-07-13T06:45:46;100580.13;;;43.74;30.69
38303;BME280;24103;42.454;27.400;2023-07-13T06:48:18;100584.94;;;44.55;29.33
38303;BME280;24103;42.454;27.400;2023-07-13T06:50:44;100580.28;;;44.87;28.69
38303;BME280;24103;42.454;27.400;2023-07-13T06:53:10;100568.94;;;44.83;27.77
38303;BME280;24103;42.454;27.400;2023-07-13T06:55:36;100558.75;;;45.10;27.30
38303;BME280;24103;42.454;27.400;2023-07-13T06:58:01;100562.38;;;44.88;28.64
38303;BME280;24103;42.454;27.400;2023-07-13T07:00:27;100562.50;;;45.37;27.42
38303;BME280;24103;42.454;27.400;2023-07-13T07:02:52;100563.84;;;45.48;27.83
38303;BME280;24103;42.454;27.400;2023-07-13T07:05:18;100551.28;;;45.94;26.58
38303;BME280;24103;42.454;27.400;2023-07-13T07:07:46;100556.66;;;45.65;26.71
38303;BME280;24103;42.454;27.400;2023-07-13T07:10:12;100554.38;;;45.75;27.85
38303;BME280;24103;42.454;27.400;2023-07-13T07:12:37;100548.00;;;46.27;25.94
38303;BME280;24103;42.454;27.400;2023-07-13T07:15:03;100552.09;;;46.12;26.02
38303;BME280;24103;42.454;27.400;2023-07-13T07:17:28;100551.91;;;46.00;26.19
38303;BME280;24103;42.454;27.400;2023-07-13T07:19:54;100545.72;;;46.21;25.74
38303;BME280;24103;42.454;27.400;2023-07-13T07:22:20;100538.97;;;46.22;25.54
38303;BME280;24103;42.454;27.400;2023-07-13T07:24:46;100538.22;;;46.77;25.01
38303;BME280;24103;42.454;27.400;2023-07-13T07:27:11;100520.97;;;46.75;23.37
38303;BME280;24103;42.454;27.400;2023-07-13T07:29:37;100533.84;;;46.50;24.83
38303;BME280;24103;42.454;27.400;2023-07-13T07:32:03;100524.09;;;47.12;23.07
38303;BME280;24103;42.454;27.400;2023-07-13T07:34:28;100519.28;;;47.51;22.18
38303;BME280;24103;42.454;27.400;2023-07-13T07:36:54;100513.78;;;47.34;22.02
38303;BME280;24103;42.454;27.400;2023-07-13T07:39:20;100509.50;;;47.66;21.65
38303;BME280;24103;42.454;27.400;2023-07-13T07:41:45;100515.81;;;48.17;21.36
38303;BME280;24103;42.454;27.400;2023-07-13T07:44:11;100509.31;;;48.26;20.90
38303;BME280;24103;42.454;27.400;2023-07-13T07:46:36;100527.56;;;48.11;22.41
38303;BME280;24103;42.454;27.400;2023-07-13T07:49:02;100526.31;;;48.54;22.79
38303;BME280;24103;42.454;27.400;2023-07-13T07:51:27;100514.59;;;48.85;21.83
38303;BME280;24103;42.454;27.400;2023-07-13T07:53:53;100521.41;;;49.21;21.11
38303;BME280;24103;42.454;27.400;2023-07-13T07:56:19;100513.53;;;49.27;21.30
38303;BME280;24103;42.454;27.400;2023-07-13T07:58:46;100514.50;;;49.19;21.10
38303;BME280;24103;42.454;27.400;2023-07-13T08:01:11;100511.09;;;48.76;21.81
38303;BME280;24103;42.454;27.400;2023-07-13T08:03:36;100519.94;;;48.32;23.04
38303;BME280;24103;42.454;27.400;2023-07-13T08:06:02;100520.94;;;47.94;23.33
38303;BME280;24103;42.454;27.400;2023-07-13T08:08:28;100528.44;;;47.60;23.45
38303;BME280;24103;42.454;27.400;2023-07-13T08:10:53;100521.41;;;47.24;23.22
38303;BME280;24103;42.454;27.400;2023-07-13T08:13:19;100535.13;;;46.70;24.06
38303;BME280;24103;42.454;27.400;2023-07-13T08:15:46;100520.81;;;46.63;23.76
38303;BME280;24103;42.454;27.400;2023-07-13T08:18:12;100533.53;;;46.16;24.39
38303;BME280;24103;42.454;27.400;2023-07-13T08:20:40;100532.28;;;45.39;24.52
38303;BME280;24103;42.454;27.400;2023-07-13T08:23:10;100531.84;;;44.51;25.58
38303;BME280;24103;42.454;27.400;2023-07-13T08:25:35;100527.75;;;43.76;26.24
38303;BME280;24103;42.454;27.400;2023-07-13T08:28:02;100531.97;;;42.76;27.34
38303;BME280;24103;42.454;27.400;2023-07-13T08:30:28;100538.75;;;41.99;28.23
38303;BME280;24103;42.454;27.400;2023-07-13T08:32:54;100538.56;;;41.28;29.39
38303;BME280;24103;42.454;27.400;2023-07-13T08:35:20;100545.66;;;40.86;29.90
38303;BME280;24103;42.454;27.400;2023-07-13T08:37:45;100544.56;;;40.47;30.69
38303;BME280;24103;42.454;27.400;2023-07-13T08:40:11;100543.53;;;39.98;31.40
38303;BME280;24103;42.454;27.400;2023-07-13T08:42:52;100554.19;;;39.66;32.20
38303;BME280;24103;42.454;27.400;2023-07-13T08:48:09;100546.03;;;39.19;31.48
38303;BME280;24103;42.454;27.400;2023-07-13T08:50:48;100547.44;;;38.96;32.40
38303;BME280;24103;42.454;27.400;2023-07-13T08:53:15;100546.34;;;38.87;32.06
38303;BME280;24103;42.454;27.400;2023-07-13T08:55:42;100548.03;;;38.73;32.26
38303;BME280;24103;42.454;27.400;2023-07-13T08:58:13;100549.09;;;38.82;32.13
38303;BME280;24103;42.454;27.400;2023-07-13T09:04:06;100541.13;;;38.70;32.35
38303;BME280;24103;42.454;27.400;2023-07-13T09:15:34;100541.38;;;38.48;32.41
38303;BME280;24103;42.454;27.400;2023-07-13T09:18:08;100531.72;;;38.61;32.36
38303;BME280;24103;42.454;27.400;2023-07-13T09:20:41;100537.50;;;38.49;32.36
38303;BME280;24103;42.454;27.400;2023-07-13T09:23:12;100537.50;;;38.54;32.76
38303;BME280;24103;42.454;27.400;2023-07-13T09:25:40;100541.38;;;38.53;33.39
38303;BME280;24103;42.454;27.400;2023-07-13T09:28:22;100535.00;;;38.52;32.28
38303;BME280;24103;42.454;27.400;2023-07-13T09:33:20;100530.88;;;38.50;32.69
38303;BME280;24103;42.454;27.400;2023-07-13T09:35:46;100530.31;;;38.58;32.49
38303;BME280;24103;42.454;27.400;2023-07-13T09:40:48;100522.31;;;38.57;32.13
38303;BME280;24103;42.454;27.400;2023-07-13T09:43:18;100521.75;;;38.44;32.71
38303;BME280;24103;42.454;27.400;2023-07-13T09:45:46;100523.97;;;38.42;32.42
38303;BME280;24103;42.454;27.400;2023-07-13T09:48:16;100519.00;;;38.55;32.40
38303;BME280;24103;42.454;27.400;2023-07-13T09:50:43;100510.16;;;38.52;31.98
38303;BME280;24103;42.454;27.400;2023-07-13T09:53:17;100500.50;;;38.34;32.51
38303;BME280;24103;42.454;27.400;2023-07-13T09:55:45;100506.59;;;38.37;32.68
38303;BME280;24103;42.454;27.400;2023-07-13T09:58:14;100510.19;;;38.32;33.69
38303;BME280;24103;42.454;27.400;2023-07-13T10:00:42;100504.09;;;38.40;33.54
38303;BME280;24103;42.454;27.400;2023-07-13T10:03:20;100497.22;;;38.53;33.00
38303;BME280;24103;42.454;27.400;2023-07-13T10:05:49;100497.22;;;38.63;32.84
38303;BME280;24103;42.454;27.400;2023-07-13T10:08:26;100490.28;;;38.66;31.24
38303;BME280;24103;42.454;27.400;2023-07-13T10:11:23;100481.72;;;38.57;31.94
38303;BME280;24103;42.454;27.400;2023-07-13T10:13:57;100488.06;;;38.58;32.37
38303;BME280;24103;42.454;27.400;2023-07-13T10:16:27;100476.22;;;38.62;31.47
38303;BME280;24103;42.454;27.400;2023-07-13T10:19:00;100470.13;;;38.70;29.85
38303;BME280;24103;42.454;27.400;2023-07-13T10:21:30;100467.38;;;38.70;30.34
38303;BME280;24103;42.454;27.400;2023-07-13T10:24:04;100472.34;;;38.79;31.36
38303;BME280;24103;42.454;27.400;2023-07-13T10:26:34;100455.78;;;38.74;29.68
38303;BME280;24103;42.454;27.400;2023-07-13T10:29:06;100448.88;;;38.76;28.30
38303;BME280;24103;42.454;27.400;2023-07-13T10:31:37;100423.47;;;38.74;27.37
38303;BME280;24103;42.454;27.400;2023-07-13T10:34:03;100426.50;;;38.78;26.12
38303;BME280;24103;42.454;27.400;2023-07-13T10:36:47;100424.28;;;38.85;27.13
38303;BME280;24103;42.454;27.400;2023-07-13T10:39:26;100419.81;;;38.89;27.39
38303;BME280;24103;42.454;27.400;2023-07-13T10:41:55;100420.94;;;38.93;27.18
38303;BME280;24103;42.454;27.400;2023-07-13T10:44:28;100411.53;;;38.94;26.82
38303;BME280;24103;42.454;27.400;2023-07-13T10:46:59;100398.84;;;38.88;25.12
38303;BME280;24103;42.454;27.400;2023-07-13T10:49:28;100399.94;;;38.92;26.12
38303;BME280;24103;42.454;27.400;2023-07-13T10:51:54;100397.44;;;38.90;25.87
38303;BME280;24103;42.454;27.400;2023-07-13T10:54:21;100397.44;;;38.90;26.82
38303;BME280;24103;42.454;27.400;2023-07-13T10:57:07;100393.34;;;38.83;26.96
38303;BME280;24103;42.454;27.400;2023-07-13T10:59:36;100404.38;;;38.88;27.38
38303;BME280;24103;42.454;27.400;2023-07-13T11:04:29;100397.22;;;38.77;29.26
38303;BME280;24103;42.454;27.400;2023-07-13T11:06:59;100390.63;;;38.73;27.76
38303;BME280;24103;42.454;27.400;2023-07-13T11:12:01;100381.41;;;39.08;27.82
38303;BME280;24103;42.454;27.400;2023-07-13T11:14:36;100385.25;;;39.07;28.02
38303;BME280;24103;42.454;27.400;2023-07-13T11:25:35;100374.19;;;39.17;27.51
38303;BME280;24103;42.454;27.400;2023-07-13T11:30:38;100375.84;;;39.13;28.09
38303;BME280;24103;42.454;27.400;2023-07-13T11:36:18;100379.44;;;39.08;28.24
38303;BME280;24103;42.454;27.400;2023-07-13T11:38:59;100371.16;;;39.08;27.93
38303;BME280;24103;42.454;27.400;2023-07-13T11:41:35;100387.41;;;39.25;28.75
38303;BME280;24103;42.454;27.400;2023-07-13T11:44:22;100374.56;;;39.40;27.52
38303;BME280;24103;42.454;27.400;2023-07-13T11:46:56;100381.56;;;39.32;27.14
38303;BME280;24103;42.454;27.400;2023-07-13T11:49:31;100385.47;;;39.21;27.98
38303;BME280;24103;42.454;27.400;2023-07-13T11:51:58;100375.59;;;38.99;27.58
38303;BME280;24103;42.454;27.400;2023-07-13T11:54:32;100379.16;;;39.05;28.23
38303;BME280;24103;42.454;27.400;2023-07-13T11:57:02;100380.84;;;39.11;28.81
38303;BME280;24103;42.454;27.400;2023-07-13T11:59:32;100379.50;;;38.93;29.40
38303;BME280;24103;42.454;27.400;2023-07-13T12:01:59;100382.63;;;38.61;29.14
38303;BME280;24103;42.454;27.400;2023-07-13T12:04:31;100378.78;;;38.51;29.80
38303;BME280;24103;42.454;27.400;2023-07-13T12:07:14;100377.13;;;38.45;29.49
38303;BME280;24103;42.454;27.400;2023-07-13T12:09:40;100371.31;;;38.52;30.44
38303;BME280;24103;42.454;27.400;2023-07-13T12:12:28;100366.91;;;38.61;28.88
38303;BME280;24103;42.454;27.400;2023-07-13T12:14:54;100363.59;;;38.49;28.57
38303;BME280;24103;42.454;27.400;2023-07-13T12:17:22;100388.47;;;38.33;32.01
38303;BME280;24103;42.454;27.400;2023-07-13T12:19:49;100384.63;;;38.14;32.55
38303;BME280;24103;42.454;27.400;2023-07-13T12:22:17;100383.78;;;37.93;33.07
38303;BME280;24103;42.454;27.400;2023-07-13T12:24:43;100394.81;;;37.83;32.68
38303;BME280;24103;42.454;27.400;2023-07-13T12:27:27;100375.50;;;37.88;30.37
38303;BME280;24103;42.454;27.400;2023-07-13T12:30:02;100370.28;;;38.07;31.58
38303;BME280;24103;42.454;27.400;2023-07-13T12:32:31;100355.63;;;38.32;30.91
38303;BME280;24103;42.454;27.400;2023-07-13T12:35:12;100363.63;;;38.44;30.37
38303;BME280;24103;42.454;27.400;2023-07-13T12:37:41;100360.03;;;38.43;31.04
38303;BME280;24103;42.454;27.400;2023-07-13T12:40:19;100352.59;;;38.33;29.72
38303;BME280;24103;42.454;27.400;2023-07-13T12:42:48;100369.69;;;38.05;35.26
38303;BME280;24103;42.454;27.400;2023-07-13T12:45:25;100389.84;;;37.74;38.06
38303;BME280;24103;42.454;27.400;2023-07-13T12:48:03;100388.13;;;37.58;37.62
38303;BME280;24103;42.454;27.400;2023-07-13T12:50:39;100375.97;;;37.43;38.45
38303;BME280;24103;42.454;27.400;2023-07-13T12:53:16;100378.72;;;37.43;38.27
38303;BME280;24103;42.454;27.400;2023-07-13T12:55:49;100377.63;;;37.29;37.85
38303;BME280;24103;42.454;27.400;2023-07-13T12:58:25;100376.91;;;36.91;39.28
38303;BME280;24103;42.454;27.400;2023-07-13T13:00:51;100382.16;;;36.50;40.37
38303;BME280;24103;42.454;27.400;2023-07-13T13:03:35;100378.56;;;36.12;41.11
38303;BME280;24103;42.454;27.400;2023-07-13T13:08:45;100376.38;;;36.14;42.19
38303;BME280;24103;42.454;27.400;2023-07-13T13:11:10;100391.69;;;36.05;41.70
38303;BME280;24103;42.454;27.400;2023-07-13T13:13:36;100382.63;;;36.04;41.94
38303;BME280;24103;42.454;27.400;2023-07-13T13:16:48;100383.72;;;36.03;42.82
38303;BME280;24103;42.454;27.400;2023-07-13T13:18:53;100382.66;;;36.09;44.23
38303;BME280;24103;42.454;27.400;2023-07-13T13:21:20;100379.69;;;36.16;43.15
38303;BME280;24103;42.454;27.400;2023-07-13T13:23:46;100373.41;;;36.21;42.21
38303;BME280;24103;42.454;27.400;2023-07-13T13:26:14;100369.25;;;36.18;42.73